sensor_id;sensor_type;location;lat;lon;timestamp;temperature;humidity
360;DHT22;168;48.872;9.226;2023-05-07T00:00:05;15.80;95.10
360;DHT22;168;48.872;9.226;2023-05-07T00:02:34;15.90;95.10
360;DHT22;168;48.872;9.226;2023-05-07T00:05:01;15.90;95.00
360;DHT22;168;48.872;9.226;2023-05-07T00:07:30;16.00;95.00
360;DHT22;168;48.872;9.226;2023-05-07T00:09:58;16.00;95.00
360;DHT22;168;48.872;9.226;2023-05-07T00:12:25;16.00;94.80
360;DHT22;168;48.872;9.226;2023-05-07T00:14:52;16.00;94.80
360;DHT22;168;48.872;9.226;2023-05-07T00:17:20;16.00;94.80
360;DHT22;168;48.872;9.226;2023-05-07T00:19:47;16.00;94.80
360;DHT22;168;48.872;9.226;2023-05-07T00:22:14;16.00;94.80
360;DHT22;168;48.872;9.226;2023-05-07T00:24:43;16.00;95.00
360;DHT22;168;48.872;9.226;2023-05-07T00:27:10;16.00;95.10
360;DHT22;168;48.872;9.226;2023-05-07T00:29:38;16.00;95.00
360;DHT22;168;48.872;9.226;2023-05-07T00:32:05;16.00;95.00
360;DHT22;168;48.872;9.226;2023-05-07T00:34:33;16.00;95.00
360;DHT22;168;48.872;9.226;2023-05-07T00:37:01;16.00;95.00
360;DHT22;168;48.872;9.226;2023-05-07T00:39:28;16.00;95.00
360;DHT22;168;48.872;9.226;2023-05-07T00:41:57;15.90;95.20
360;DHT22;168;48.872;9.226;2023-05-07T00:44:24;15.90;95.30
360;DHT22;168;48.872;9.226;2023-05-07T00:46:52;15.80;95.30
360;DHT22;168;48.872;9.226;2023-05-07T00:49:20;15.80;95.40
360;DHT22;168;48.872;9.226;2023-05-07T00:51:48;15.80;95.30
360;DHT22;168;48.872;9.226;2023-05-07T00:54:16;15.80;95.30
360;DHT22;168;48.872;9.226;2023-05-07T00:56:44;15.80;95.30
360;DHT22;168;48.872;9.226;2023-05-07T00:59:13;15.70;95.20
360;DHT22;168;48.872;9.226;2023-05-07T01:01:40;15.70;95.20
360;DHT22;168;48.872;9.226;2023-05-07T01:04:08;15.70;95.20
360;DHT22;168;48.872;9.226;2023-05-07T01:06:35;15.70;95.30
360;DHT22;168;48.872;9.226;2023-05-07T01:09:03;15.60;95.30
360;DHT22;168;48.872;9.226;2023-05-07T01:11:30;15.60;95.30
360;DHT22;168;48.872;9.226;2023-05-07T01:13:58;15.50;95.50
360;DHT22;168;48.872;9.226;2023-05-07T01:16:27;15.50;95.40
360;DHT22;168;48.872;9.226;2023-05-07T01:18:55;15.40;95.60
360;DHT22;168;48.872;9.226;2023-05-07T01:21:25;15.40;95.60
360;DHT22;168;48.872;9.226;2023-05-07T01:23:55;15.30;95.60
360;DHT22;168;48.872;9.226;2023-05-07T01:26:22;15.30;95.60
360;DHT22;168;48.872;9.226;2023-05-07T01:28:50;15.30;95.60
360;DHT22;168;48.872;9.226;2023-05-07T01:31:17;15.20;95.70
360;DHT22;168;48.872;9.226;2023-05-07T01:33:46;15.20;95.70
360;DHT22;168;48.872;9.226;2023-05-07T01:36:15;15.20;95.80
360;DHT22;168;48.872;9.226;2023-05-07T01:38:44;15.20;95.70
360;DHT22;168;48.872;9.226;2023-05-07T01:41:13;15.20;95.80
360;DHT22;168;48.872;9.226;2023-05-07T01:43:41;15.30;95.80
360;DHT22;168;48.872;9.226;2023-05-07T01:46:10;15.30;95.80
360;DHT22;168;48.872;9.226;2023-05-07T01:48:39;15.30;95.80
360;DHT22;168;48.872;9.226;2023-05-07T01:51:06;15.30;95.80
360;DHT22;168;48.872;9.226;2023-05-07T01:53:36;15.30;95.80
360;DHT22;168;48.872;9.226;2023-05-07T01:56:04;15.40;95.80
360;DHT22;168;48.872;9.226;2023-05-07T01:58:33;15.40;95.70
360;DHT22;168;48.872;9.226;2023-05-07T02:01:00;15.40;95.70
360;DHT22;168;48.872;9.226;2023-05-07T02:03:27;15.40;95.70
360;DHT22;168;48.872;9.226;2023-05-07T02:05:55;15.30;95.70
360;DHT22;168;48.872;9.226;2023-05-07T02:08:22;15.30;95.70
360;DHT22;168;48.872;9.226;2023-05-07T02:10:50;15.30;95.60
360;DHT22;168;48.872;9.226;2023-05-07T02:13:17;15.30;95.70
360;DHT22;168;48.872;9.226;2023-05-07T02:15:47;15.30;95.70
360;DHT22;168;48.872;9.226;2023-05-07T02:18:16;15.30;95.70
360;DHT22;168;48.872;9.226;2023-05-07T02:20:43;15.30;95.70
360;DHT22;168;48.872;9.226;2023-05-07T02:23:11;15.20;95.80
360;DHT22;168;48.872;9.226;2023-05-07T02:25:38;15.20;95.80
360;DHT22;168;48.872;9.226;2023-05-07T02:28:06;15.20;95.90
360;DHT22;168;48.872;9.226;2023-05-07T02:30:33;15.20;95.80
360;DHT22;168;48.872;9.226;2023-05-07T02:33:02;15.20;95.80
360;DHT22;168;48.872;9.226;2023-05-07T02:35:29;15.10;95.90
360;DHT22;168;48.872;9.226;2023-05-07T02:37:56;15.10;95.90
360;DHT22;168;48.872;9.226;2023-05-07T02:40:24;15.10;95.90
360;DHT22;168;48.872;9.226;2023-05-07T02:42:51;15.10;95.90
360;DHT22;168;48.872;9.226;2023-05-07T02:45:18;15.10;95.90
360;DHT22;168;48.872;9.226;2023-05-07T02:47:46;15.00;96.00
360;DHT22;168;48.872;9.226;2023-05-07T02:50:15;15.00;96.00
360;DHT22;168;48.872;9.226;2023-05-07T02:52:42;15.00;96.10
360;DHT22;168;48.872;9.226;2023-05-07T02:55:09;15.00;96.10
360;DHT22;168;48.872;9.226;2023-05-07T02:57:37;15.00;96.00
360;DHT22;168;48.872;9.226;2023-05-07T03:00:11;14.90;96.00
360;DHT22;168;48.872;9.226;2023-05-07T03:02:39;14.90;96.00
360;DHT22;168;48.872;9.226;2023-05-07T03:05:06;14.80;96.00
360;DHT22;168;48.872;9.226;2023-05-07T03:07:35;14.90;96.00
360;DHT22;168;48.872;9.226;2023-05-07T03:10:03;14.80;96.00
360;DHT22;168;48.872;9.226;2023-05-07T03:12:32;14.70;96.00
360;DHT22;168;48.872;9.226;2023-05-07T03:14:59;14.70;96.00
360;DHT22;168;48.872;9.226;2023-05-07T03:17:26;14.60;96.10
360;DHT22;168;48.872;9.226;2023-05-07T03:19:54;14.50;96.20
360;DHT22;168;48.872;9.226;2023-05-07T03:22:21;14.50;96.10
360;DHT22;168;48.872;9.226;2023-05-07T03:24:50;14.50;96.10
360;DHT22;168;48.872;9.226;2023-05-07T03:27:17;14.50;96.10
360;DHT22;168;48.872;9.226;2023-05-07T03:29:44;14.50;96.10
360;DHT22;168;48.872;9.226;2023-05-07T03:32:12;14.40;96.00
360;DHT22;168;48.872;9.226;2023-05-07T03:34:39;14.40;96.10
360;DHT22;168;48.872;9.226;2023-05-07T03:37:06;14.30;96.00
360;DHT22;168;48.872;9.226;2023-05-07T03:39:34;14.30;96.00
360;DHT22;168;48.872;9.226;2023-05-07T03:42:03;14.30;96.00
360;DHT22;168;48.872;9.226;2023-05-07T03:44:30;14.20;96.00
360;DHT22;168;48.872;9.226;2023-05-07T03:46:58;14.20;95.90
360;DHT22;168;48.872;9.226;2023-05-07T03:49:25;14.20;95.90
360;DHT22;168;48.872;9.226;2023-05-07T03:51:52;14.20;95.80
360;DHT22;168;48.872;9.226;2023-05-07T03:54:20;14.10;95.90
360;DHT22;168;48.872;9.226;2023-05-07T03:56:47;14.10;95.90
360;DHT22;168;48.872;9.226;2023-05-07T03:59:16;14.10;96.00
360;DHT22;168;48.872;9.226;2023-05-07T04:01:43;14.10;95.90
360;DHT22;168;48.872;9.226;2023-05-07T04:04:10;14.10;96.00
360;DHT22;168;48.872;9.226;2023-05-07T04:06:38;14.10;95.90
360;DHT22;168;48.872;9.226;2023-05-07T04:09:05;14.10;95.90
360;DHT22;168;48.872;9.226;2023-05-07T04:11:35;14.20;95.90
360;DHT22;168;48.872;9.226;2023-05-07T04:14:02;14.20;95.90
360;DHT22;168;48.872;9.226;2023-05-07T04:16:31;14.20;95.90
360;DHT22;168;48.872;9.226;2023-05-07T04:18:58;14.20;95.90
360;DHT22;168;48.872;9.226;2023-05-07T04:21:26;14.20;95.90
360;DHT22;168;48.872;9.226;2023-05-07T04:23:53;14.20;95.90
360;DHT22;168;48.872;9.226;2023-05-07T04:26:20;14.20;95.90
360;DHT22;168;48.872;9.226;2023-05-07T04:28:49;14.30;96.00
360;DHT22;168;48.872;9.226;2023-05-07T04:31:16;14.40;95.90
360;DHT22;168;48.872;9.226;2023-05-07T04:33:45;14.40;96.00
360;DHT22;168;48.872;9.226;2023-05-07T04:36:12;14.40;96.00
360;DHT22;168;48.872;9.226;2023-05-07T04:38:40;14.50;96.00
360;DHT22;168;48.872;9.226;2023-05-07T04:41:09;14.50;96.00
360;DHT22;168;48.872;9.226;2023-05-07T04:43:36;14.60;96.00
360;DHT22;168;48.872;9.226;2023-05-07T04:46:03;14.70;95.90
360;DHT22;168;48.872;9.226;2023-05-07T04:48:31;14.70;95.90
360;DHT22;168;48.872;9.226;2023-05-07T04:50:59;14.80;96.00
360;DHT22;168;48.872;9.226;2023-05-07T04:53:27;14.80;96.00
360;DHT22;168;48.872;9.226;2023-05-07T04:55:57;14.90;96.00
360;DHT22;168;48.872;9.226;2023-05-07T04:58:25;15.10;95.90
360;DHT22;168;48.872;9.226;2023-05-07T05:00:53;15.20;95.90
360;DHT22;168;48.872;9.226;2023-05-07T05:03:20;15.30;95.90
360;DHT22;168;48.872;9.226;2023-05-07T05:05:49;15.40;95.70
360;DHT22;168;48.872;9.226;2023-05-07T05:08:18;15.50;95.50
360;DHT22;168;48.872;9.226;2023-05-07T05:10:46;15.60;95.30
360;DHT22;168;48.872;9.226;2023-05-07T05:13:14;15.60;95.20
360;DHT22;168;48.872;9.226;2023-05-07T05:15:42;15.60;95.10
360;DHT22;168;48.872;9.226;2023-05-07T05:18:09;15.70;95.00
360;DHT22;168;48.872;9.226;2023-05-07T05:20:36;15.70;94.90
360;DHT22;168;48.872;9.226;2023-05-07T05:23:04;15.70;94.80
360;DHT22;168;48.872;9.226;2023-05-07T05:25:33;15.70;94.80
360;DHT22;168;48.872;9.226;2023-05-07T05:28:00;15.70;94.80
360;DHT22;168;48.872;9.226;2023-05-07T05:30:27;15.80;94.90
360;DHT22;168;48.872;9.226;2023-05-07T05:32:55;15.80;94.90
360;DHT22;168;48.872;9.226;2023-05-07T05:35:22;15.80;95.00
360;DHT22;168;48.872;9.226;2023-05-07T05:37:49;15.80;95.10
360;DHT22;168;48.872;9.226;2023-05-07T05:40:17;15.90;94.90
360;DHT22;168;48.872;9.226;2023-05-07T05:42:46;16.10;94.40
360;DHT22;168;48.872;9.226;2023-05-07T05:45:14;16.20;94.10
360;DHT22;168;48.872;9.226;2023-05-07T05:47:41;16.10;94.20
360;DHT22;168;48.872;9.226;2023-05-07T05:50:09;16.10;94.50
360;DHT22;168;48.872;9.226;2023-05-07T05:52:36;16.10;94.40
360;DHT22;168;48.872;9.226;2023-05-07T05:55:04;16.20;94.30
360;DHT22;168;48.872;9.226;2023-05-07T05:57:32;16.30;94.20
360;DHT22;168;48.872;9.226;2023-05-07T06:00:02;16.40;93.80
360;DHT22;168;48.872;9.226;2023-05-07T06:02:30;16.50;93.80
360;DHT22;168;48.872;9.226;2023-05-07T06:04:57;16.60;94.00
360;DHT22;168;48.872;9.226;2023-05-07T06:07:25;16.60;93.90
360;DHT22;168;48.872;9.226;2023-05-07T06:09:52;16.80;93.30
360;DHT22;168;48.872;9.226;2023-05-07T06:12:20;16.90;92.50
360;DHT22;168;48.872;9.226;2023-05-07T06:14:48;17.00;91.60
360;DHT22;168;48.872;9.226;2023-05-07T06:17:16;17.00;91.40
360;DHT22;168;48.872;9.226;2023-05-07T06:19:44;17.10;92.00
360;DHT22;168;48.872;9.226;2023-05-07T06:22:11;17.10;92.10
360;DHT22;168;48.872;9.226;2023-05-07T06:24:38;17.30;92.40
360;DHT22;168;48.872;9.226;2023-05-07T06:27:06;17.50;92.00
360;DHT22;168;48.872;9.226;2023-05-07T06:29:34;17.60;91.10
360;DHT22;168;48.872;9.226;2023-05-07T06:32:07;17.80;90.30
360;DHT22;168;48.872;9.226;2023-05-07T06:34:36;18.00;90.00
360;DHT22;168;48.872;9.226;2023-05-07T06:37:03;18.20;89.50
360;DHT22;168;48.872;9.226;2023-05-07T06:39:31;18.40;87.40
360;DHT22;168;48.872;9.226;2023-05-07T06:42:00;18.50;87.40
360;DHT22;168;48.872;9.226;2023-05-07T06:44:27;18.60;87.60
360;DHT22;168;48.872;9.226;2023-05-07T06:46:54;18.60;87.00
360;DHT22;168;48.872;9.226;2023-05-07T06:49:22;18.70;87.20
360;DHT22;168;48.872;9.226;2023-05-07T06:51:51;18.80;86.90
360;DHT22;168;48.872;9.226;2023-05-07T06:54:18;18.90;86.90
360;DHT22;168;48.872;9.226;2023-05-07T06:56:46;18.90;86.80
360;DHT22;168;48.872;9.226;2023-05-07T06:59:13;19.00;86.60
360;DHT22;168;48.872;9.226;2023-05-07T07:01:41;19.00;86.20
360;DHT22;168;48.872;9.226;2023-05-07T07:04:08;19.10;85.20
360;DHT22;168;48.872;9.226;2023-05-07T07:06:35;19.20;84.30
360;DHT22;168;48.872;9.226;2023-05-07T07:09:04;19.20;84.80
360;DHT22;168;48.872;9.226;2023-05-07T07:11:31;19.30;85.50
360;DHT22;168;48.872;9.226;2023-05-07T07:13:59;19.40;84.50
360;DHT22;168;48.872;9.226;2023-05-07T07:16:27;19.50;85.40
360;DHT22;168;48.872;9.226;2023-05-07T07:18:54;19.60;84.80
360;DHT22;168;48.872;9.226;2023-05-07T07:21:22;19.80;84.00
360;DHT22;168;48.872;9.226;2023-05-07T07:23:49;19.90;83.50
360;DHT22;168;48.872;9.226;2023-05-07T07:26:18;20.10;83.70
360;DHT22;168;48.872;9.226;2023-05-07T07:28:46;20.20;83.40
360;DHT22;168;48.872;9.226;2023-05-07T07:31:14;20.40;82.60
360;DHT22;168;48.872;9.226;2023-05-07T07:33:41;20.50;82.20
360;DHT22;168;48.872;9.226;2023-05-07T07:36:09;20.60;81.70
360;DHT22;168;48.872;9.226;2023-05-07T07:38:37;20.70;81.50
360;DHT22;168;48.872;9.226;2023-05-07T07:41:04;20.80;80.80
360;DHT22;168;48.872;9.226;2023-05-07T07:43:33;21.00;80.90
360;DHT22;168;48.872;9.226;2023-05-07T07:46:01;21.20;81.00
360;DHT22;168;48.872;9.226;2023-05-07T07:48:29;21.40;79.90
360;DHT22;168;48.872;9.226;2023-05-07T07:50:56;21.60;78.90
360;DHT22;168;48.872;9.226;2023-05-07T07:53:23;21.90;76.90
360;DHT22;168;48.872;9.226;2023-05-07T07:55:51;22.10;77.70
360;DHT22;168;48.872;9.226;2023-05-07T07:58:18;22.20;77.60
360;DHT22;168;48.872;9.226;2023-05-07T08:00:47;22.30;77.00
360;DHT22;168;48.872;9.226;2023-05-07T08:03:14;22.40;75.60
360;DHT22;168;48.872;9.226;2023-05-07T08:05:42;22.40;76.00
360;DHT22;168;48.872;9.226;2023-05-07T08:08:10;22.50;75.30
360;DHT22;168;48.872;9.226;2023-05-07T08:10:37;22.50;75.00
360;DHT22;168;48.872;9.226;2023-05-07T08:13:05;22.60;75.10
360;DHT22;168;48.872;9.226;2023-05-07T08:15:33;22.70;75.20
360;DHT22;168;48.872;9.226;2023-05-07T08:18:02;22.80;75.40
360;DHT22;168;48.872;9.226;2023-05-07T08:20:30;22.90;74.30
360;DHT22;168;48.872;9.226;2023-05-07T08:22:58;22.90;74.60
360;DHT22;168;48.872;9.226;2023-05-07T08:25:25;23.00;75.10
360;DHT22;168;48.872;9.226;2023-05-07T08:27:52;23.00;74.90
360;DHT22;168;48.872;9.226;2023-05-07T08:30:20;23.10;72.50
360;DHT22;168;48.872;9.226;2023-05-07T08:32:47;23.20;73.50
360;DHT22;168;48.872;9.226;2023-05-07T08:35:16;23.30;73.10
360;DHT22;168;48.872;9.226;2023-05-07T08:37:43;23.50;72.70
360;DHT22;168;48.872;9.226;2023-05-07T08:40:11;23.60;72.40
360;DHT22;168;48.872;9.226;2023-05-07T08:42:40;23.70;71.50
360;DHT22;168;48.872;9.226;2023-05-07T08:45:09;23.70;72.10
360;DHT22;168;48.872;9.226;2023-05-07T08:47:42;23.80;73.30
360;DHT22;168;48.872;9.226;2023-05-07T08:50:11;23.90;73.30
360;DHT22;168;48.872;9.226;2023-05-07T08:52:40;24.00;72.50
360;DHT22;168;48.872;9.226;2023-05-07T08:55:08;24.10;71.00
360;DHT22;168;48.872;9.226;2023-05-07T08:57:36;24.10;71.00
360;DHT22;168;48.872;9.226;2023-05-07T09:00:05;24.20;70.80
360;DHT22;168;48.872;9.226;2023-05-07T09:02:33;24.30;69.40
360;DHT22;168;48.872;9.226;2023-05-07T09:05:02;24.40;68.60
360;DHT22;168;48.872;9.226;2023-05-07T09:07:30;24.40;69.60
360;DHT22;168;48.872;9.226;2023-05-07T09:10:01;24.50;69.30
360;DHT22;168;48.872;9.226;2023-05-07T09:12:30;24.60;70.00
360;DHT22;168;48.872;9.226;2023-05-07T09:14:57;24.70;68.40
360;DHT22;168;48.872;9.226;2023-05-07T09:17:26;24.80;69.60
360;DHT22;168;48.872;9.226;2023-05-07T09:19:53;25.00;69.10
360;DHT22;168;48.872;9.226;2023-05-07T09:22:21;25.10;68.50
360;DHT22;168;48.872;9.226;2023-05-07T09:24:50;25.20;68.10
360;DHT22;168;48.872;9.226;2023-05-07T09:27:19;25.30;67.80
360;DHT22;168;48.872;9.226;2023-05-07T09:29:46;25.40;68.00
360;DHT22;168;48.872;9.226;2023-05-07T09:32:14;25.50;66.50
360;DHT22;168;48.872;9.226;2023-05-07T09:34:42;25.40;66.40
360;DHT22;168;48.872;9.226;2023-05-07T09:37:12;25.40;67.30
360;DHT22;168;48.872;9.226;2023-05-07T09:40:24;25.40;67.40
360;DHT22;168;48.872;9.226;2023-05-07T09:42:52;25.30;68.20
360;DHT22;168;48.872;9.226;2023-05-07T09:45:22;25.40;69.00
360;DHT22;168;48.872;9.226;2023-05-07T09:47:54;25.50;67.80
360;DHT22;168;48.872;9.226;2023-05-07T09:50:26;25.50;67.60
360;DHT22;168;48.872;9.226;2023-05-07T09:52:55;25.50;69.20
360;DHT22;168;48.872;9.226;2023-05-07T09:55:24;25.50;67.80
360;DHT22;168;48.872;9.226;2023-05-07T09:57:53;25.40;68.30
360;DHT22;168;48.872;9.226;2023-05-07T10:00:22;25.40;66.70
360;DHT22;168;48.872;9.226;2023-05-07T10:02:51;25.40;67.90
360;DHT22;168;48.872;9.226;2023-05-07T10:05:18;25.40;68.70
360;DHT22;168;48.872;9.226;2023-05-07T10:07:46;25.40;67.50
360;DHT22;168;48.872;9.226;2023-05-07T10:10:15;25.40;67.60
360;DHT22;168;48.872;9.226;2023-05-07T10:12:44;25.30;68.30
360;DHT22;168;48.872;9.226;2023-05-07T10:15:12;25.10;70.80
360;DHT22;168;48.872;9.226;2023-05-07T10:17:40;25.20;68.10
360;DHT22;168;48.872;9.226;2023-05-07T10:20:08;25.10;68.70
360;DHT22;168;48.872;9.226;2023-05-07T10:22:38;25.00;70.10
360;DHT22;168;48.872;9.226;2023-05-07T10:25:12;25.10;70.40
360;DHT22;168;48.872;9.226;2023-05-07T10:27:43;25.20;69.90
360;DHT22;168;48.872;9.226;2023-05-07T10:30:19;25.30;68.60
360;DHT22;168;48.872;9.226;2023-05-07T10:32:53;25.50;67.80
360;DHT22;168;48.872;9.226;2023-05-07T10:35:24;25.70;67.60
360;DHT22;168;48.872;9.226;2023-05-07T10:37:52;25.80;66.60
360;DHT22;168;48.872;9.226;2023-05-07T10:40:20;25.90;66.70
360;DHT22;168;48.872;9.226;2023-05-07T10:42:56;25.90;66.60
360;DHT22;168;48.872;9.226;2023-05-07T10:45:25;25.70;66.90
360;DHT22;168;48.872;9.226;2023-05-07T10:48:09;25.60;66.00
360;DHT22;168;48.872;9.226;2023-05-07T10:50:38;25.50;67.70
360;DHT22;168;48.872;9.226;2023-05-07T10:53:21;25.40;66.80
360;DHT22;168;48.872;9.226;2023-05-07T10:56:24;25.40;66.90
360;DHT22;168;48.872;9.226;2023-05-07T10:58:54;25.50;66.40
360;DHT22;168;48.872;9.226;2023-05-07T11:01:50;25.50;65.30
360;DHT22;168;48.872;9.226;2023-05-07T11:04:18;25.60;65.30
360;DHT22;168;48.872;9.226;2023-05-07T11:07:26;25.50;66.00
360;DHT22;168;48.872;9.226;2023-05-07T11:09:58;25.50;67.40
360;DHT22;168;48.872;9.226;2023-05-07T11:12:49;25.60;66.40
360;DHT22;168;48.872;9.226;2023-05-07T11:15:42;25.60;66.40
360;DHT22;168;48.872;9.226;2023-05-07T11:18:11;25.50;67.30
360;DHT22;168;48.872;9.226;2023-05-07T11:20:56;25.60;67.00
360;DHT22;168;48.872;9.226;2023-05-07T11:23:55;25.70;66.00
360;DHT22;168;48.872;9.226;2023-05-07T11:26:25;25.90;65.30
360;DHT22;168;48.872;9.226;2023-05-07T11:28:52;25.90;65.40
360;DHT22;168;48.872;9.226;2023-05-07T11:31:26;26.00;63.70
360;DHT22;168;48.872;9.226;2023-05-07T11:33:54;26.00;63.80
360;DHT22;168;48.872;9.226;2023-05-07T11:36:23;26.00;63.40
360;DHT22;168;48.872;9.226;2023-05-07T11:38:52;26.00;62.90
360;DHT22;168;48.872;9.226;2023-05-07T11:41:19;26.10;63.60
360;DHT22;168;48.872;9.226;2023-05-07T11:43:57;26.10;62.10
360;DHT22;168;48.872;9.226;2023-05-07T11:46:27;26.10;61.90
360;DHT22;168;48.872;9.226;2023-05-07T11:48:56;26.10;61.90
360;DHT22;168;48.872;9.226;2023-05-07T11:51:24;26.30;61.50
360;DHT22;168;48.872;9.226;2023-05-07T11:53:53;26.30;61.40
360;DHT22;168;48.872;9.226;2023-05-07T11:56:21;26.30;61.70
360;DHT22;168;48.872;9.226;2023-05-07T11:58:48;26.40;61.30
360;DHT22;168;48.872;9.226;2023-05-07T12:01:18;26.40;61.20
360;DHT22;168;48.872;9.226;2023-05-07T12:03:47;26.40;61.30
360;DHT22;168;48.872;9.226;2023-05-07T12:06:15;26.50;61.00
360;DHT22;168;48.872;9.226;2023-05-07T12:08:43;26.50;60.80
360;DHT22;168;48.872;9.226;2023-05-07T12:11:14;26.60;61.70
360;DHT22;168;48.872;9.226;2023-05-07T12:13:43;26.70;61.80
360;DHT22;168;48.872;9.226;2023-05-07T12:16:11;26.80;60.60
360;DHT22;168;48.872;9.226;2023-05-07T12:18:38;27.00;60.50
360;DHT22;168;48.872;9.226;2023-05-07T12:21:08;27.10;59.30
360;DHT22;168;48.872;9.226;2023-05-07T12:23:37;27.10;59.00
360;DHT22;168;48.872;9.226;2023-05-07T12:26:05;27.20;58.70
360;DHT22;168;48.872;9.226;2023-05-07T12:28:36;27.20;59.20
360;DHT22;168;48.872;9.226;2023-05-07T12:31:05;27.10;59.50
360;DHT22;168;48.872;9.226;2023-05-07T12:33:34;27.20;60.00
360;DHT22;168;48.872;9.226;2023-05-07T12:36:07;27.20;59.40
360;DHT22;168;48.872;9.226;2023-05-07T12:38:36;27.10;59.90
360;DHT22;168;48.872;9.226;2023-05-07T12:41:05;27.10;58.40
360;DHT22;168;48.872;9.226;2023-05-07T12:43:33;27.00;59.50
360;DHT22;168;48.872;9.226;2023-05-07T12:46:05;26.90;59.70
360;DHT22;168;48.872;9.226;2023-05-07T12:48:33;27.00;60.00
360;DHT22;168;48.872;9.226;2023-05-07T12:51:01;27.00;60.30
360;DHT22;168;48.872;9.226;2023-05-07T12:53:30;27.00;61.40
360;DHT22;168;48.872;9.226;2023-05-07T12:55:58;27.00;61.60
360;DHT22;168;48.872;9.226;2023-05-07T12:58:27;27.00;61.80
360;DHT22;168;48.872;9.226;2023-05-07T13:00:56;26.90;62.00
360;DHT22;168;48.872;9.226;2023-05-07T13:03:25;26.50;63.70
360;DHT22;168;48.872;9.226;2023-05-07T13:05:56;26.00;65.30
360;DHT22;168;48.872;9.226;2023-05-07T13:08:25;25.60;67.80
360;DHT22;168;48.872;9.226;2023-05-07T13:10:55;25.20;69.70
360;DHT22;168;48.872;9.226;2023-05-07T13:13:23;24.90;72.70
360;DHT22;168;48.872;9.226;2023-05-07T13:15:51;24.50;74.50
360;DHT22;168;48.872;9.226;2023-05-07T13:18:18;24.20;78.00
360;DHT22;168;48.872;9.226;2023-05-07T13:20:46;23.90;79.50
360;DHT22;168;48.872;9.226;2023-05-07T13:23:13;23.40;81.20
360;DHT22;168;48.872;9.226;2023-05-07T13:25:41;23.00;84.60
360;DHT22;168;48.872;9.226;2023-05-07T13:28:10;22.80;84.90
360;DHT22;168;48.872;9.226;2023-05-07T13:30:38;22.50;83.90
360;DHT22;168;48.872;9.226;2023-05-07T13:33:06;22.20;81.30
360;DHT22;168;48.872;9.226;2023-05-07T13:35:34;21.90;80.40
360;DHT22;168;48.872;9.226;2023-05-07T13:38:01;21.50;82.40
360;DHT22;168;48.872;9.226;2023-05-07T13:40:29;21.20;82.10
360;DHT22;168;48.872;9.226;2023-05-07T13:42:57;20.80;83.90
360;DHT22;168;48.872;9.226;2023-05-07T13:45:28;20.50;86.50
360;DHT22;168;48.872;9.226;2023-05-07T13:47:56;20.30;85.70
360;DHT22;168;48.872;9.226;2023-05-07T13:50:24;20.10;85.40
360;DHT22;168;48.872;9.226;2023-05-07T13:52:53;19.80;87.00
360;DHT22;168;48.872;9.226;2023-05-07T13:55:21;19.70;88.40
360;DHT22;168;48.872;9.226;2023-05-07T13:57:54;19.60;87.70
360;DHT22;168;48.872;9.226;2023-05-07T14:00:22;19.60;86.80
360;DHT22;168;48.872;9.226;2023-05-07T14:02:51;19.50;87.40
360;DHT22;168;48.872;9.226;2023-05-07T14:05:19;19.50;86.50
360;DHT22;168;48.872;9.226;2023-05-07T14:07:46;19.60;86.20
360;DHT22;168;48.872;9.226;2023-05-07T14:10:15;19.40;86.90
360;DHT22;168;48.872;9.226;2023-05-07T14:12:43;19.40;87.30
360;DHT22;168;48.872;9.226;2023-05-07T14:15:10;19.30;87.80
360;DHT22;168;48.872;9.226;2023-05-07T14:17:38;19.20;88.00
360;DHT22;168;48.872;9.226;2023-05-07T14:20:08;19.10;89.40
360;DHT22;168;48.872;9.226;2023-05-07T14:22:36;19.00;88.50
360;DHT22;168;48.872;9.226;2023-05-07T14:25:05;19.00;87.90
360;DHT22;168;48.872;9.226;2023-05-07T14:27:32;18.90;90.80
360;DHT22;168;48.872;9.226;2023-05-07T14:30:00;18.80;91.70
360;DHT22;168;48.872;9.226;2023-05-07T14:32:28;18.70;92.80
360;DHT22;168;48.872;9.226;2023-05-07T14:34:56;18.60;93.50
360;DHT22;168;48.872;9.226;2023-05-07T14:37:25;18.50;93.70
360;DHT22;168;48.872;9.226;2023-05-07T14:39:52;18.50;94.40
360;DHT22;168;48.872;9.226;2023-05-07T14:42:19;18.40;94.50
360;DHT22;168;48.872;9.226;2023-05-07T14:44:47;18.30;94.50
360;DHT22;168;48.872;9.226;2023-05-07T14:47:14;18.30;94.70
360;DHT22;168;48.872;9.226;2023-05-07T14:49:41;18.30;94.70
360;DHT22;168;48.872;9.226;2023-05-07T14:52:09;18.40;94.70
360;DHT22;168;48.872;9.226;2023-05-07T14:54:38;18.50;94.60
360;DHT22;168;48.872;9.226;2023-05-07T14:57:06;18.50;94.40
360;DHT22;168;48.872;9.226;2023-05-07T14:59:34;18.40;94.70
360;DHT22;168;48.872;9.226;2023-05-07T15:02:01;18.40;94.80
360;DHT22;168;48.872;9.226;2023-05-07T15:04:28;18.20;95.00
360;DHT22;168;48.872;9.226;2023-05-07T15:06:56;18.00;95.00
360;DHT22;168;48.872;9.226;2023-05-07T15:09:23;18.00;95.00
360;DHT22;168;48.872;9.226;2023-05-07T15:11:52;17.90;94.90
360;DHT22;168;48.872;9.226;2023-05-07T15:14:19;17.90;95.20
360;DHT22;168;48.872;9.226;2023-05-07T15:16:48;17.90;95.00
360;DHT22;168;48.872;9.226;2023-05-07T15:19:15;17.90;94.70
360;DHT22;168;48.872;9.226;2023-05-07T15:21:43;18.10;94.60
360;DHT22;168;48.872;9.226;2023-05-07T15:24:10;18.30;94.90
360;DHT22;168;48.872;9.226;2023-05-07T15:26:37;18.40;94.80
360;DHT22;168;48.872;9.226;2023-05-07T15:29:06;18.60;94.90
360;DHT22;168;48.872;9.226;2023-05-07T15:31:36;18.80;94.70
360;DHT22;168;48.872;9.226;2023-05-07T15:34:04;18.80;94.40
360;DHT22;168;48.872;9.226;2023-05-07T15:36:32;18.90;94.60
360;DHT22;168;48.872;9.226;2023-05-07T15:38:59;18.80;94.50
360;DHT22;168;48.872;9.226;2023-05-07T15:41:28;18.80;94.50
360;DHT22;168;48.872;9.226;2023-05-07T15:43:55;18.80;94.50
360;DHT22;168;48.872;9.226;2023-05-07T15:46:25;18.90;94.70
360;DHT22;168;48.872;9.226;2023-05-07T15:48:52;18.90;94.80
360;DHT22;168;48.872;9.226;2023-05-07T15:51:20;19.00;94.90
360;DHT22;168;48.872;9.226;2023-05-07T15:53:49;19.00;94.70
360;DHT22;168;48.872;9.226;2023-05-07T15:56:17;18.80;94.70
360;DHT22;168;48.872;9.226;2023-05-07T15:58:44;18.80;94.90
360;DHT22;168;48.872;9.226;2023-05-07T16:01:12;18.90;94.90
360;DHT22;168;48.872;9.226;2023-05-07T16:03:40;19.00;94.80
360;DHT22;168;48.872;9.226;2023-05-07T16:06:08;19.00;94.80
360;DHT22;168;48.872;9.226;2023-05-07T16:08:37;18.90;94.80
360;DHT22;168;48.872;9.226;2023-05-07T16:11:05;18.80;94.70
360;DHT22;168;48.872;9.226;2023-05-07T16:13:33;18.60;94.70
360;DHT22;168;48.872;9.226;2023-05-07T16:16:02;18.50;94.70
360;DHT22;168;48.872;9.226;2023-05-07T16:18:29;18.50;94.90
360;DHT22;168;48.872;9.226;2023-05-07T16:20:58;18.40;94.50
360;DHT22;168;48.872;9.226;2023-05-07T16:23:26;18.30;94.10
360;DHT22;168;48.872;9.226;2023-05-07T16:25:53;18.30;94.20
360;DHT22;168;48.872;9.226;2023-05-07T16:28:21;18.30;93.90
360;DHT22;168;48.872;9.226;2023-05-07T16:30:49;18.20;93.00
360;DHT22;168;48.872;9.226;2023-05-07T16:33:16;18.20;92.60
360;DHT22;168;48.872;9.226;2023-05-07T16:35:43;18.30;92.30
360;DHT22;168;48.872;9.226;2023-05-07T16:38:14;18.40;93.70
360;DHT22;168;48.872;9.226;2023-05-07T16:40:41;18.40;93.30
360;DHT22;168;48.872;9.226;2023-05-07T16:43:09;18.50;93.70